createdAt,value
2022-12-01T00:01:08.364Z,42.55
2022-12-01T00:03:35.279Z,42.70
2022-12-01T00:06:16.329Z,45.50
2022-12-01T00:09:03.080Z,40.55
2022-12-01T00:11:29.448Z,43.30
2022-12-01T00:13:55.799Z,43.88
2022-12-01T00:16:22.201Z,38.55
2022-12-01T00:18:53.017Z,45.72
2022-12-01T00:21:21.990Z,42.58
2022-12-01T00:23:51.197Z,40.63
2022-12-01T00:26:18.611Z,38.63
2022-12-01T00:28:49.268Z,40.08
2022-12-01T00:31:15.677Z,45.00
2022-12-01T00:33:42.117Z,42.80
2022-12-01T00:36:08.814Z,42.25
2022-12-01T00:38:35.760Z,35.95
2022-12-01T00:41:02.933Z,38.15
2022-12-01T00:43:29.524Z,36.50
2022-12-01T00:45:56.537Z,38.85
2022-12-01T00:48:23.708Z,34.63
2022-12-01T00:50:52.277Z,39.92
2022-12-01T00:53:19.168Z,35.08
2022-12-01T00:55:45.723Z,39.47
2022-12-01T00:58:12.034Z,41.00
2022-12-01T01:00:42.782Z,43.45
2022-12-01T01:03:10.246Z,41.05
2022-12-01T01:05:37.931Z,44.15
2022-12-01T01:08:09.207Z,44.47
2022-12-01T01:10:43.297Z,46.28
2022-12-01T01:13:10.393Z,44.42
2022-12-01T01:15:37.068Z,47.67
2022-12-01T01:18:04.261Z,44.47
2022-12-01T01:20:31.305Z,49.55
2022-12-01T01:22:58.175Z,43.45
2022-12-01T01:25:24.518Z,47.92
2022-12-01T01:27:51.553Z,48.17
2022-12-01T01:30:18.416Z,45.75
2022-12-01T01:32:45.052Z,44.85
2022-12-01T01:35:11.384Z,44.90
2022-12-01T01:37:37.841Z,48.35
2022-12-01T01:40:04.837Z,47.78
2022-12-01T01:42:31.286Z,46.92
2022-12-01T01:44:58.936Z,46.05
2022-12-01T01:47:33.166Z,51.33
2022-12-01T01:50:09.028Z,48.72
2022-12-01T01:55:03.130Z,50.65
2022-12-01T01:57:33.204Z,49.92
2022-12-01T02:00:07.764Z,45.83
2022-12-01T02:02:40.454Z,48.47
2022-12-01T02:05:12.004Z,50.10
2022-12-01T02:07:40.055Z,46.78
2022-12-01T02:10:12.415Z,48.38
2022-12-01T02:13:17.149Z,46.70
2022-12-01T02:15:55.370Z,44.35
2022-12-01T02:18:38.774Z,44.60
2022-12-01T02:21:20.196Z,45.03
2022-12-01T02:23:49.501Z,41.80
2022-12-01T02:26:36.217Z,45.15
2022-12-01T02:29:33.221Z,45.58
2022-12-01T02:32:28.819Z,48.55
2022-12-01T02:35:02.908Z,42.13
2022-12-01T02:38:00.195Z,42.80
2022-12-01T02:40:53.156Z,42.05
2022-12-01T02:43:50.506Z,51.28
2022-12-01T02:46:39.188Z,51.67
2022-12-01T02:49:13.121Z,51.78
2022-12-01T02:51:44.682Z,57.03
2022-12-01T02:54:13.425Z,54.92
2022-12-01T02:56:39.927Z,56.58
2022-12-01T02:59:14.792Z,54.47
2022-12-01T03:01:50.887Z,61.47
2022-12-01T03:04:23.184Z,59.50
2022-12-01T03:07:15.532Z,55.03
2022-12-01T03:09:57.141Z,57.00
2022-12-01T03:12:35.441Z,50.40
2022-12-01T03:15:09.215Z,49.70
2022-12-01T03:17:42.711Z,49.53
2022-12-01T03:20:23.910Z,44.17
2022-12-01T03:22:55.440Z,43.92
2022-12-01T03:25:24.602Z,45.50
2022-12-01T03:28:20.589Z,49.47
2022-12-01T03:30:44.941Z,49.63
2022-12-01T03:33:20.412Z,52.63
2022-12-01T03:36:08.286Z,53.42
2022-12-01T03:38:36.859Z,56.28
2022-12-01T03:41:13.222Z,51.47
2022-12-01T03:43:45.230Z,56.80
2022-12-01T03:46:21.922Z,53.60
2022-12-01T03:48:48.430Z,58.92
2022-12-01T03:51:31.500Z,58.47
2022-12-01T03:54:13.094Z,57.75
2022-12-01T03:56:46.583Z,54.60
2022-12-01T03:59:16.226Z,58.83
2022-12-01T04:01:42.751Z,57.10
2022-12-01T04:04:11.777Z,57.28
2022-12-01T04:06:40.760Z,61.10
2022-12-01T04:09:07.105Z,58.00
2022-12-01T04:11:52.439Z,62.28
2022-12-01T04:14:18.836Z,61.33
2022-12-01T04:16:45.134Z,64.97
2022-12-01T04:19:11.638Z,61.25
2022-12-01T04:21:38.177Z,61.20
2022-12-01T04:24:04.678Z,59.88
2022-12-01T04:26:34.038Z,58.63
2022-12-01T04:29:02.023Z,61.40
2022-12-01T04:31:28.686Z,56.15
2022-12-01T04:33:56.168Z,64.90
2022-12-01T04:36:24.052Z,61.75
2022-12-01T04:38:50.896Z,63.25
2022-12-01T04:41:19.553Z,62.15
2022-12-01T04:43:46.010Z,60.70
2022-12-01T04:46:12.509Z,58.33
2022-12-01T04:48:39.455Z,58.35
2022-12-01T04:51:07.870Z,51.55
2022-12-01T04:53:35.385Z,52.53
2022-12-01T04:56:02.385Z,47.17
2022-12-01T04:58:29.709Z,46.78
2022-12-01T05:01:02.901Z,44.22
2022-12-01T05:03:29.344Z,47.88
2022-12-01T05:06:16.265Z,50.22
2022-12-01T05:08:42.699Z,49.42
2022-12-01T05:11:12.111Z,48.13
2022-12-01T05:13:43.705Z,45.88
2022-12-01T05:16:15.883Z,45.92
2022-12-01T05:18:42.739Z,48.08
2022-12-01T05:21:10.656Z,46.97
2022-12-01T05:23:38.459Z,42.03
2022-12-01T05:26:06.836Z,38.88
2022-12-01T05:28:33.319Z,41.13
2022-12-01T05:30:59.759Z,44.53
2022-12-01T05:33:26.996Z,41.22
2022-12-01T05:35:53.686Z,39.97
2022-12-01T05:38:20.655Z,38.38
2022-12-01T05:40:54.883Z,36.67
2022-12-01T05:43:28.361Z,39.45
2022-12-01T05:45:55.758Z,38.55
2022-12-01T05:48:22.251Z,36.42
2022-12-01T05:50:48.571Z,37.67
2022-12-01T05:53:15.608Z,43.83
2022-12-01T05:55:42.025Z,36.67
2022-12-01T05:58:09.132Z,41.60
2022-12-01T06:00:38.518Z,39.92
2022-12-01T06:03:08.672Z,44.13
2022-12-01T06:05:34.982Z,47.45
2022-12-01T06:08:01.615Z,45.47
2022-12-01T06:10:28.037Z,44.88
2022-12-01T06:12:54.406Z,41.35
2022-12-01T06:15:20.755Z,47.10
2022-12-01T06:17:47.284Z,42.25
2022-12-01T06:20:13.712Z,45.13
2022-12-01T06:22:40.136Z,40.20
2022-12-01T06:25:07.174Z,43.47
2022-12-01T06:27:33.493Z,44.38
2022-12-01T06:29:59.805Z,42.35
2022-12-01T06:32:26.107Z,44.92
2022-12-01T06:34:52.483Z,46.78
2022-12-01T06:37:18.861Z,43.40
2022-12-01T06:39:45.221Z,42.70
2022-12-01T06:42:11.981Z,44.10
2022-12-01T06:44:38.782Z,36.92
2022-12-01T06:47:05.184Z,40.45
2022-12-01T06:49:31.558Z,37.05
2022-12-01T06:52:00.711Z,38.42
2022-12-01T06:54:27.329Z,35.40
2022-12-01T06:56:53.694Z,34.00
2022-12-01T06:59:20.134Z,36.40
2022-12-01T07:01:46.827Z,32.42
2022-12-01T07:04:13.501Z,36.65
2022-12-01T07:06:39.786Z,36.30
2022-12-01T07:09:06.105Z,35.35
2022-12-01T07:11:32.503Z,35.63
2022-12-01T07:13:58.869Z,36.17
2022-12-01T07:16:25.443Z,42.35
2022-12-01T07:18:52.531Z,44.60
2022-12-01T07:21:18.845Z,54.28
2022-12-01T07:23:45.199Z,57.60
2022-12-01T07:26:17.150Z,59.67
2022-12-01T07:28:44.736Z,60.80
2022-12-01T07:31:16.701Z,60.00
2022-12-01T07:33:43.159Z,63.67
2022-12-01T07:36:11.547Z,70.78
2022-12-01T07:38:38.904Z,68.35
2022-12-01T07:41:07.658Z,68.50
2022-12-01T07:43:34.625Z,69.43
2022-12-01T07:46:27.800Z,66.20
2022-12-01T07:48:55.446Z,70.88
2022-12-01T07:51:23.550Z,64.88
2022-12-01T07:53:51.189Z,68.63
2022-12-01T07:56:18.839Z,62.72
2022-12-01T07:58:45.348Z,66.38
2022-12-01T08:01:15.009Z,64.40
2022-12-01T08:03:42.294Z,61.78
2022-12-01T08:06:09.625Z,63.90
2022-12-01T08:08:37.859Z,66.95
2022-12-01T08:11:07.890Z,64.30
2022-12-01T08:13:34.645Z,60.85
2022-12-01T08:16:04.684Z,64.47
2022-12-01T08:18:31.115Z,64.68
2022-12-01T08:21:00.282Z,66.00
2022-12-01T08:23:26.644Z,62.50
2022-12-01T08:25:53.050Z,59.63
2022-12-01T08:28:20.163Z,64.72
2022-12-01T08:30:47.183Z,63.95
2022-12-01T08:33:13.576Z,64.35
2022-12-01T08:35:39.909Z,65.45
2022-12-01T08:38:06.258Z,66.00
2022-12-01T08:40:32.593Z,63.42
2022-12-01T08:42:58.938Z,66.88
2022-12-01T08:45:25.272Z,68.10
2022-12-01T08:47:53.234Z,68.95
2022-12-01T08:50:19.577Z,75.15
2022-12-01T08:52:46.074Z,72.13
2022-12-01T08:55:24.433Z,74.45
2022-12-01T08:57:50.743Z,76.82
2022-12-01T09:00:17.240Z,80.93
2022-12-01T09:02:43.595Z,81.93
2022-12-01T09:05:10.128Z,82.30
2022-12-01T09:07:36.612Z,79.28
2022-12-01T09:10:03.680Z,82.13
2022-12-01T09:12:30.169Z,73.45
2022-12-01T09:14:56.602Z,84.28
2022-12-01T09:17:23.643Z,80.90
2022-12-01T09:19:50.208Z,78.82
2022-12-01T09:22:16.833Z,82.60
2022-12-01T09:24:43.180Z,84.95
2022-12-01T09:27:10.037Z,82.22
2022-12-01T09:29:36.486Z,79.10
2022-12-01T09:32:03.029Z,76.60
2022-12-01T09:34:29.363Z,74.15
2022-12-01T09:36:57.594Z,77.85
2022-12-01T09:39:25.013Z,78.45
2022-12-01T09:41:59.797Z,79.07
2022-12-01T09:44:50.709Z,80.28
2022-12-01T09:47:26.198Z,81.30
2022-12-01T09:50:13.151Z,79.03
2022-12-01T09:53:08.121Z,78.70
2022-12-01T09:55:35.345Z,76.43
2022-12-01T09:58:04.128Z,78.00
2022-12-01T10:00:34.188Z,73.20
2022-12-01T10:03:13.935Z,76.35
2022-12-01T10:06:25.946Z,74.20
2022-12-01T10:08:46.983Z,77.22
2022-12-01T10:11:24.835Z,77.25
2022-12-01T10:13:51.159Z,77.80
2022-12-01T10:16:26.458Z,72.55
2022-12-01T10:19:15.385Z,67.13
2022-12-01T10:22:07.126Z,72.60
2022-12-01T10:24:47.745Z,71.32
2022-12-01T10:27:32.281Z,74.68
2022-12-01T10:30:04.084Z,73.05
2022-12-01T10:32:51.071Z,71.47
2022-12-01T10:35:19.480Z,68.88
2022-12-01T10:37:47.292Z,71.22
2022-12-01T10:40:15.746Z,80.57
2022-12-01T10:42:47.894Z,73.47
2022-12-01T10:45:16.194Z,72.80
2022-12-01T10:48:18.129Z,75.32
2022-12-01T10:50:47.370Z,70.68
2022-12-01T10:53:22.883Z,71.03
2022-12-01T10:56:04.536Z,72.57
2022-12-01T10:58:34.418Z,67.78
2022-12-01T11:01:05.507Z,69.38
2022-12-01T11:03:34.721Z,66.28
2022-12-01T11:06:03.155Z,73.43
2022-12-01T11:08:46.714Z,73.32
2022-12-01T11:11:36.671Z,66.95
2022-12-01T11:14:07.188Z,75.90
2022-12-01T11:16:42.882Z,74.78
2022-12-01T11:21:54.726Z,70.45
2022-12-01T11:24:43.924Z,71.00
2022-12-01T11:27:17.478Z,72.18
2022-12-01T11:29:46.262Z,67.70
2022-12-01T11:32:29.054Z,71.65
2022-12-01T11:34:59.775Z,74.88
2022-12-01T11:37:50.487Z,74.22
2022-12-01T11:40:30.586Z,74.30
2022-12-01T11:43:00.635Z,74.32
2022-12-01T11:45:32.248Z,75.45
2022-12-01T11:48:04.359Z,75.82
2022-12-01T11:50:34.046Z,75.38
2022-12-01T11:53:01.953Z,73.70
2022-12-01T11:55:30.768Z,80.90
2022-12-01T11:58:14.815Z,79.50
2022-12-01T12:00:54.865Z,93.53
2022-12-01T12:03:35.115Z,79.55
2022-12-01T12:06:18.227Z,82.53
2022-12-01T12:09:08.189Z,73.93
2022-12-01T12:11:42.113Z,80.70
2022-12-01T12:14:17.657Z,73.88
2022-12-01T12:16:58.535Z,78.53
2022-12-01T12:20:07.106Z,80.00
2022-12-01T12:23:10.588Z,78.20
2022-12-01T12:26:03.360Z,79.35
2022-12-01T12:28:54.865Z,80.70
2022-12-01T12:31:52.123Z,79.63
2022-12-01T12:34:50.851Z,79.93
2022-12-01T12:37:40.016Z,84.25
2022-12-01T12:40:08.986Z,84.32
2022-12-01T12:42:57.131Z,81.63
2022-12-01T12:45:50.390Z,83.22
2022-12-01T12:48:57.271Z,78.10
2022-12-01T12:51:38.266Z,79.47
2022-12-01T12:54:13.649Z,78.55
2022-12-01T12:56:46.037Z,78.07
2022-12-01T12:59:24.350Z,78.75
2022-12-01T13:02:09.493Z,78.88
2022-12-01T13:04:59.532Z,77.82
2022-12-01T13:07:37.222Z,79.53
2022-12-01T13:10:15.956Z,77.35
2022-12-01T13:12:51.219Z,77.65
2022-12-01T13:15:20.489Z,78.60
2022-12-01T13:17:58.353Z,78.57
2022-12-01T13:20:27.757Z,76.05
2022-12-01T13:22:58.570Z,78.45
2022-12-01T13:25:34.273Z,80.13
2022-12-01T13:28:03.134Z,74.65
2022-12-01T13:30:29.680Z,78.95
2022-12-01T13:33:02.485Z,76.22
2022-12-01T13:35:31.641Z,71.95
2022-12-01T13:38:30.183Z,73.75
2022-12-01T13:41:24.322Z,70.85
2022-12-01T13:44:04.168Z,81.68
2022-12-01T13:46:32.337Z,70.85
2022-12-01T13:49:03.054Z,74.80
2022-12-01T13:52:08.258Z,73.30
2022-12-01T13:54:36.802Z,71.35
2022-12-01T13:57:10.642Z,67.50
2022-12-01T13:59:59.375Z,72.85
2022-12-01T14:02:34.601Z,68.28
2022-12-01T14:05:23.032Z,66.43
2022-12-01T14:07:53.919Z,68.07
2022-12-01T14:10:27.272Z,70.25
2022-12-01T14:12:57.593Z,61.75
2022-12-01T14:15:30.057Z,65.85
2022-12-01T14:18:18.194Z,64.60
2022-12-01T14:20:46.643Z,59.45
2022-12-01T14:23:33.801Z,63.65
2022-12-01T14:26:23.243Z,59.20
2022-12-01T14:28:55.835Z,62.78
2022-12-01T14:31:23.763Z,62.55
2022-12-01T14:34:03.113Z,60.45
2022-12-01T14:36:54.468Z,62.72
2022-12-01T14:39:30.839Z,60.63
2022-12-01T14:42:01.884Z,64.60
2022-12-01T14:44:37.832Z,60.75
2022-12-01T14:47:10.345Z,64.10
2022-12-01T14:49:47.258Z,60.50
2022-12-01T14:52:23.432Z,60.45
2022-12-01T14:54:51.210Z,63.47
2022-12-01T14:57:23.585Z,63.80
2022-12-01T15:00:10.966Z,67.57
2022-12-01T15:02:56.998Z,62.20
2022-12-01T15:05:27.261Z,61.03
2022-12-01T15:08:40.342Z,66.55
2022-12-01T15:11:06.411Z,63.60
2022-12-01T15:13:53.210Z,63.83
2022-12-01T15:16:22.943Z,60.97
2022-12-01T15:18:49.935Z,65.32
2022-12-01T15:21:20.753Z,65.90
2022-12-01T15:24:04.757Z,65.70
2022-12-01T15:26:36.636Z,74.13
2022-12-01T15:29:16.133Z,69.45
2022-12-01T15:31:46.828Z,67.45
2022-12-01T15:34:36.328Z,74.53
2022-12-01T15:37:05.318Z,71.55
2022-12-01T15:39:35.367Z,71.93
2022-12-01T15:42:03.047Z,67.60
2022-12-01T15:44:37.256Z,68.43
2022-12-01T15:47:41.044Z,71.72
2022-12-01T15:50:46.147Z,73.88
2022-12-01T15:53:32.765Z,74.63
2022-12-01T15:56:02.124Z,73.47
2022-12-01T15:58:31.523Z,69.45
2022-12-01T16:01:29.693Z,73.07
2022-12-01T16:04:04.242Z,68.57
2022-12-01T16:06:34.197Z,63.83
2022-12-01T16:09:03.774Z,73.63
2022-12-01T16:11:30.768Z,65.60
2022-12-01T16:14:01.800Z,73.05
2022-12-01T16:16:54.590Z,75.50
2022-12-01T16:19:26.310Z,74.95
2022-12-01T16:21:59.813Z,73.00
2022-12-01T16:24:30.603Z,70.00
2022-12-01T16:27:04.184Z,69.43
2022-12-01T16:29:43.878Z,64.50
2022-12-01T16:32:32.222Z,63.03
2022-12-01T16:34:59.161Z,58.10
2022-12-01T16:37:26.835Z,64.05
2022-12-01T16:39:53.281Z,60.05
2022-12-01T16:42:21.317Z,62.20
2022-12-01T16:44:48.845Z,67.05
2022-12-01T16:47:21.838Z,67.85
2022-12-01T16:49:48.737Z,71.68
2022-12-01T16:52:43.140Z,66.25
2022-12-01T16:55:02.001Z,70.72
2022-12-01T16:57:28.334Z,65.22
2022-12-01T16:59:54.740Z,64.18
2022-12-01T17:02:21.153Z,66.97
2022-12-01T17:04:47.813Z,68.25
2022-12-01T17:07:14.383Z,69.50
2022-12-01T17:09:40.712Z,66.03
2022-12-01T17:12:07.243Z,69.63
2022-12-01T17:14:33.642Z,64.70
2022-12-01T17:17:02.082Z,64.53
2022-12-01T17:19:28.399Z,65.07
2022-12-01T17:21:58.297Z,66.95
2022-12-01T17:24:25.803Z,68.35
2022-12-01T17:26:52.167Z,68.60
2022-12-01T17:29:19.728Z,70.70
2022-12-01T17:31:47.186Z,67.03
2022-12-01T17:34:13.564Z,62.50
2022-12-01T17:36:41.116Z,60.25
2022-12-01T17:39:07.504Z,61.05
2022-12-01T17:41:35.716Z,59.30
2022-12-01T17:44:04.119Z,69.07
2022-12-01T17:46:31.421Z,61.53
2022-12-01T17:48:59.216Z,66.70
2022-12-01T17:51:25.643Z,62.55
2022-12-01T17:53:53.710Z,59.47
2022-12-01T17:56:20.058Z,61.92
2022-12-01T17:58:49.000Z,60.97
2022-12-01T18:01:17.439Z,59.83
2022-12-01T18:03:44.582Z,61.85
2022-12-01T18:06:12.068Z,58.35
2022-12-01T18:08:39.760Z,53.33
2022-12-01T18:11:09.821Z,55.25
2022-12-01T18:13:41.835Z,52.38
2022-12-01T18:16:10.326Z,52.40
2022-12-01T18:18:37.487Z,48.13
2022-12-01T18:21:12.863Z,47.00
2022-12-01T18:23:39.576Z,48.45
2022-12-01T18:26:15.214Z,48.00
2022-12-01T18:28:42.702Z,47.30
2022-12-01T18:31:12.033Z,46.30
2022-12-01T18:33:40.303Z,46.08
2022-12-01T18:36:16.677Z,47.40
2022-12-01T18:38:43.675Z,47.10
2022-12-01T18:41:10.045Z,49.85
2022-12-01T18:43:36.580Z,51.17
2022-12-01T18:46:04.606Z,50.38
2022-12-01T18:48:31.122Z,57.08
2022-12-01T18:51:04.444Z,53.60
2022-12-01T18:53:31.406Z,52.75
2022-12-01T18:56:03.220Z,55.35
2022-12-01T18:58:30.087Z,63.38
2022-12-01T19:00:56.756Z,54.25
2022-12-01T19:03:23.306Z,52.63
2022-12-01T19:05:49.677Z,51.55
2022-12-01T19:08:16.219Z,55.08
2022-12-01T19:10:42.646Z,49.03
2022-12-01T19:13:09.051Z,55.45
2022-12-01T19:15:38.501Z,55.60
2022-12-01T19:18:04.968Z,54.97
2022-12-01T19:20:31.305Z,52.22
2022-12-01T19:22:57.812Z,57.88
2022-12-01T19:25:24.202Z,54.72
2022-12-01T19:27:53.071Z,62.28
2022-12-01T19:30:19.542Z,62.80
2022-12-01T19:32:46.091Z,64.15
2022-12-01T19:35:12.469Z,65.03
2022-12-01T19:37:38.830Z,68.90
2022-12-01T19:40:05.774Z,63.08
2022-12-01T19:42:32.176Z,66.13
2022-12-01T19:44:58.931Z,67.95
2022-12-01T19:47:25.245Z,66.47
2022-12-01T19:49:51.576Z,66.90
2022-12-01T19:52:17.886Z,62.17
2022-12-01T19:54:44.190Z,69.13
2022-12-01T19:57:10.682Z,57.78
2022-12-01T19:59:37.034Z,63.75
2022-12-01T20:02:03.442Z,64.10
2022-12-01T20:04:29.990Z,61.72
2022-12-01T20:06:56.332Z,63.08
2022-12-01T20:09:22.702Z,65.15
2022-12-01T20:11:49.295Z,60.80
2022-12-01T20:14:15.795Z,64.55
2022-12-01T20:16:42.311Z,63.90
2022-12-01T20:19:08.858Z,65.38
2022-12-01T20:21:42.982Z,61.75
2022-12-01T20:24:15.136Z,57.83
2022-12-01T20:26:45.282Z,62.30
2022-12-01T20:29:14.729Z,60.50
2022-12-01T20:31:42.219Z,68.85
2022-12-01T20:34:13.886Z,60.90
2022-12-01T20:36:40.878Z,69.75
2022-12-01T20:39:08.294Z,62.70
2022-12-01T20:41:35.479Z,66.85
2022-12-01T20:44:07.015Z,66.25
2022-12-01T20:46:34.410Z,59.60
2022-12-01T20:49:00.890Z,55.70
2022-12-01T20:51:27.725Z,64.53
2022-12-01T20:54:19.655Z,59.72
2022-12-01T21:03:59.474Z,47.00
2022-12-01T21:06:25.924Z,56.22
2022-12-01T21:08:52.274Z,59.22
2022-12-01T21:11:43.908Z,61.72
2022-12-01T21:14:21.994Z,63.08
2022-12-01T21:16:49.142Z,63.28
2022-12-01T21:19:25.836Z,60.80
2022-12-01T21:21:52.237Z,61.47
2022-12-01T21:24:22.108Z,58.28
2022-12-01T21:26:54.525Z,62.03
2022-12-01T21:29:24.963Z,62.30
2022-12-01T21:31:53.518Z,63.72
2022-12-01T21:34:25.457Z,60.38
2022-12-01T21:36:56.067Z,60.05
2022-12-01T21:39:23.948Z,60.75
2022-12-01T21:41:54.729Z,62.22
2022-12-01T21:44:22.476Z,62.42
2022-12-01T21:46:53.317Z,66.45
2022-12-01T21:49:21.858Z,64.72
2022-12-01T21:51:51.809Z,65.00
2022-12-01T21:54:20.679Z,67.80
2022-12-01T21:56:48.643Z,63.65
2022-12-01T21:59:22.906Z,66.00
2022-12-01T22:01:54.084Z,65.82
2022-12-01T22:04:26.071Z,64.25
2022-12-01T22:06:54.470Z,59.38
2022-12-01T22:09:33.051Z,67.35
2022-12-01T22:12:22.825Z,63.47
2022-12-01T22:14:50.095Z,66.13
2022-12-01T22:17:20.526Z,62.67
2022-12-01T22:19:55.194Z,68.20
2022-12-01T22:22:27.073Z,63.35
2022-12-01T22:25:25.207Z,71.10
2022-12-01T22:27:51.932Z,68.40
2022-12-01T22:30:23.430Z,66.63
2022-12-01T22:33:01.046Z,63.67
2022-12-01T22:35:42.666Z,67.13
2022-12-01T22:38:09.000Z,67.18
2022-12-01T22:40:38.224Z,68.15
2022-12-01T22:43:26.533Z,69.22
2022-12-01T22:46:02.760Z,66.65
2022-12-01T22:48:46.621Z,65.50
2022-12-01T22:51:12.906Z,64.68
2022-12-01T22:53:40.510Z,68.45
2022-12-01T22:56:40.151Z,60.22
2022-12-01T22:59:14.889Z,58.33
2022-12-01T23:01:52.428Z,56.92
2022-12-01T23:04:38.454Z,57.28
2022-12-01T23:07:27.453Z,59.13
2022-12-01T23:09:56.655Z,54.92
2022-12-01T23:12:25.922Z,59.25
2022-12-01T23:14:55.190Z,57.00
2022-12-01T23:17:26.009Z,55.75
2022-12-01T23:20:02.019Z,53.45
2022-12-01T23:22:28.333Z,55.90
2022-12-01T23:24:54.709Z,57.65
2022-12-01T23:27:21.060Z,55.70
2022-12-01T23:29:47.501Z,55.05
2022-12-01T23:32:13.837Z,56.80
2022-12-01T23:34:40.202Z,56.60
2022-12-01T23:37:26.707Z,53.03
2022-12-01T23:39:53.053Z,60.45
2022-12-01T23:42:19.665Z,58.63
2022-12-01T23:44:45.989Z,55.28
2022-12-01T23:47:28.722Z,54.30
2022-12-01T23:50:01.453Z,58.53
2022-12-01T23:52:34.977Z,52.70
2022-12-01T23:55:07.485Z,55.10
2022-12-01T23:57:35.828Z,54.33
